Time;durP1;ratioP1;P1;durP2;ratioP2;P2;SDS_P1;SDS_P2;PMS_P1;PMS_P2;Temp;Humidity;BMP_temperature;BMP_pressure;BME280_temperature;BME280_humidity;BME280_pressure;Samples;Min_cycle;Max_cycle;Signal;HPM_P1;HPM_P2
2023/03/01 00:00:04;;;;;;;7.57;4.00;;;0.10;75.50;;;;;;5053568;28;20136;-64
2023/03/01 00:02:38;;;;;;;10.32;4.25;;;0.10;75.70;;;;;;5049219;28;20056;-66
2023/03/01 00:05:07;;;;;;;8.02;3.90;;;0.10;75.70;;;;;;5053406;28;20487;-66
2023/03/01 00:07:35;;;;;;;10.30;4.28;;;0.10;75.70;;;;;;5046668;28;21297;-65
2023/03/01 00:10:04;;;;;;;8.05;4.43;;;0.10;75.70;;;;;;5055138;28;20415;-65
2023/03/01 00:12:37;;;;;;;9.55;4.55;;;0.10;75.60;;;;;;5054436;28;20122;-64
2023/03/01 00:15:05;;;;;;;10.05;4.50;;;0.10;75.60;;;;;;5055242;28;20048;-65
2023/03/01 00:17:32;;;;;;;9.50;4.97;;;0.10;75.60;;;;;;5054452;28;20438;-64
2023/03/01 00:19:59;;;;;;;9.05;4.90;;;0.10;75.70;;;;;;5057895;28;20061;-65
2023/03/01 00:22:29;;;;;;;10.50;5.13;;;0.00;76.00;;;;;;5055472;28;20057;-62
2023/03/01 00:24:55;;;;;;;11.27;5.32;;;0.00;76.00;;;;;;5056236;28;20419;-62
2023/03/01 00:27:24;;;;;;;10.77;4.78;;;0.00;76.00;;;;;;5055946;28;20045;-65
2023/03/01 00:29:51;;;;;;;12.48;5.07;;;0.00;76.00;;;;;;5039895;28;20483;-64
2023/03/01 00:32:18;;;;;;;9.35;5.07;;;0.10;75.80;;;;;;5053167;28;20352;-63
2023/03/01 00:34:53;;;;;;;9.70;5.20;;;0.10;75.90;;;;;;5050142;28;20049;-62
2023/03/01 00:37:20;;;;;;;10.55;5.35;;;0.00;76.00;;;;;;5069588;28;20056;-71
2023/03/01 00:39:48;;;;;;;9.73;5.03;;;0.10;76.00;;;;;;5049347;28;20049;-70
2023/03/01 00:42:16;;;;;;;11.38;5.35;;;0.00;76.00;;;;;;5053006;28;20049;-65
2023/03/01 00:44:44;;;;;;;9.38;4.97;;;0.00;76.10;;;;;;5051670;28;20056;-65
2023/03/01 00:47:11;;;;;;;11.75;5.47;;;0.00;76.20;;;;;;5050914;28;20053;-64
2023/03/01 00:49:38;;;;;;;9.63;4.47;;;0.00;76.20;;;;;;5054120;28;20048;-62
2023/03/01 00:52:06;;;;;;;9.82;4.47;;;0.00;76.30;;;;;;5054379;28;20448;-63
2023/03/01 00:54:32;;;;;;;10.05;4.53;;;0.00;76.30;;;;;;5043684;28;20498;-63
2023/03/01 00:56:59;;;;;;;10.65;4.50;;;0.00;76.30;;;;;;5057310;28;20044;-74
2023/03/01 00:59:26;;;;;;;8.68;4.07;;;0.00;76.30;;;;;;5057163;28;20059;-75
2023/03/01 01:01:55;;;;;;;12.65;4.85;;;0.00;76.50;;;;;;5055973;28;20044;-74
2023/03/01 01:04:22;;;;;;;8.32;4.35;;;0.00;76.60;;;;;;5056985;28;20111;-74
2023/03/01 01:06:49;;;;;;;10.85;4.90;;;0.00;76.50;;;;;;5056721;28;20043;-65
2023/03/01 01:09:18;;;;;;;8.70;4.25;;;0.00;76.60;;;;;;5047415;28;20234;-65
2023/03/01 01:11:46;;;;;;;9.13;4.97;;;0.00;76.70;;;;;;5051614;28;20056;-65
2023/03/01 01:14:14;;;;;;;9.32;4.32;;;0.00;76.70;;;;;;5049410;28;20037;-64
2023/03/01 01:16:41;;;;;;;8.60;4.70;;;0.00;77.00;;;;;;5050229;28;20052;-64
2023/03/01 01:19:11;;;;;;;8.82;4.68;;;0.00;77.20;;;;;;5052031;28;20052;-64
2023/03/01 01:21:38;;;;;;;11.18;4.85;;;0.00;77.10;;;;;;5050897;28;20107;-78
2023/03/01 01:24:06;;;;;;;8.60;5.03;;;0.00;77.10;;;;;;5046408;28;20037;-74
2023/03/01 01:26:34;;;;;;;13.90;5.47;;;0.00;77.00;;;;;;5052651;28;20508;-62
2023/03/01 01:29:03;;;;;;;8.77;4.63;;;0.00;77.00;;;;;;5052066;28;20056;-62
2023/03/01 01:31:31;;;;;;;8.27;4.70;;;0.00;76.90;;;;;;5047917;28;20472;-73
2023/03/01 01:33:59;;;;;;;8.95;4.13;;;0.00;76.80;;;;;;5050091;28;20048;-76
2023/03/01 01:36:27;;;;;;;9.98;5.22;;;0.00;76.70;;;;;;5050046;28;20051;-71
2023/03/01 01:38:54;;;;;;;11.98;5.57;;;0.00;76.80;;;;;;5050343;28;20085;-71
2023/03/01 01:41:22;;;;;;;11.25;4.97;;;0.00;76.90;;;;;;5046007;28;20043;-63
2023/03/01 01:44:10;;;;;;;9.25;4.97;;;0.00;77.10;;;;;;5044044;28;20424;-62
2023/03/01 01:46:39;;;;;;;10.85;5.32;;;0.00;77.10;;;;;;5048799;28;20052;-63
2023/03/01 01:49:18;;;;;;;11.65;5.50;;;0.00;77.10;;;;;;5043393;28;20515;-63
2023/03/01 01:51:49;;;;;;;9.75;4.78;;;0.00;77.10;;;;;;5050789;28;20504;-63
2023/03/01 01:54:22;;;;;;;8.52;5.07;;;0.00;77.10;;;;;;5048322;28;20049;-63
2023/03/01 01:56:53;;;;;;;10.70;4.93;;;0.00;77.20;;;;;;5049914;28;20051;-63
2023/03/01 01:59:24;;;;;;;11.38;5.60;;;0.00;77.30;;;;;;5033109;28;20057;-63
2023/03/01 02:01:51;;;;;;;11.90;5.50;;;0.00;77.30;;;;;;5049667;28;20053;-63
2023/03/01 02:04:18;;;;;;;10.30;5.65;;;0.00;77.40;;;;;;5049358;28;20055;-63
2023/03/01 02:06:51;;;;;;;10.25;5.65;;;0.00;77.40;;;;;;5052378;28;20048;-62
2023/03/01 02:09:21;;;;;;;10.23;5.45;;;0.00;77.50;;;;;;5051443;28;20044;-62
2023/03/01 02:11:49;;;;;;;10.03;4.97;;;0.00;77.40;;;;;;5048677;28;20502;-62
2023/03/01 02:14:18;;;;;;;10.27;5.43;;;0.00;77.50;;;;;;5046444;28;20466;-62
2023/03/01 02:16:45;;;;;;;10.45;5.38;;;0.00;77.50;;;;;;5045479;28;20076;-64
2023/03/01 02:19:27;;;;;;;8.10;5.32;;;0.00;77.50;;;;;;5049826;28;20057;-66
2023/03/01 02:22:04;;;;;;;10.20;4.97;;;0.00;77.40;;;;;;5037180;28;20992;-65
2023/03/01 02:24:36;;;;;;;10.85;5.40;;;0.00;77.40;;;;;;5047941;28;20076;-65
2023/03/01 02:27:04;;;;;;;9.82;5.07;;;0.00;77.40;;;;;;5047367;28;20067;-70
2023/03/01 02:29:33;;;;;;;11.68;5.50;;;0.00;77.60;;;;;;5048914;28;20144;-69
2023/03/01 02:32:02;;;;;;;7.93;5.30;;;0.00;77.60;;;;;;5047570;28;20484;-61
2023/03/01 02:34:30;;;;;;;13.65;5.07;;;0.00;77.60;;;;;;5049630;28;20056;-62
2023/03/01 02:37:02;;;;;;;59.70;16.13;;;0.00;77.70;;;;;;5048601;28;20053;-62
2023/03/01 02:39:33;;;;;;;92.72;26.88;;;-3276.70;78.40;;;;;;5050548;28;20059;-62
2023/03/01 02:42:02;;;;;;;;;;;-3276.70;79.10;;;;;;5045412;28;20045;-63
2023/03/01 02:44:29;;;;;;;67.20;21.80;;;-3276.60;79.50;;;;;;5053376;28;19929;-61
2023/03/01 02:47:01;;;;;;;75.68;23.48;;;-3276.60;79.50;;;;;;5047773;28;20056;-62
2023/03/01 02:49:31;;;;;;;76.35;24.05;;;-3276.60;79.50;;;;;;5049670;28;20085;-62
2023/03/01 02:52:18;;;;;;;88.38;24.15;;;-3276.60;79.60;;;;;;5052840;28;20119;-69
2023/03/01 02:54:49;;;;;;;74.30;22.45;;;-3276.60;79.80;;;;;;5051934;28;20087;-70
2023/03/01 02:57:17;;;;;;;85.85;24.20;;;-3276.60;79.70;;;;;;5049320;28;20045;-70
2023/03/01 02:59:44;;;;;;;82.13;23.50;;;-3276.70;79.60;;;;;;5036774;28;20135;-69
2023/03/01 03:02:35;;;;;;;78.97;22.48;;;-3276.70;79.90;;;;;;5052737;28;20042;-64
2023/03/01 03:05:09;;;;;;;70.25;20.95;;;-3276.70;79.90;;;;;;5052047;28;20076;-63
2023/03/01 03:07:37;;;;;;;72.85;21.45;;;-3276.70;79.80;;;;;;5053367;28;20084;-65
2023/03/01 03:10:07;;;;;;;69.78;20.90;;;-3276.70;79.70;;;;;;5058755;28;20064;-65
2023/03/01 03:12:35;;;;;;;68.35;20.33;;;-3276.60;79.70;;;;;;5056668;28;20110;-64
2023/03/01 03:15:08;;;;;;;66.28;20.55;;;-3276.60;79.90;;;;;;5056760;28;20053;-64
2023/03/01 03:17:37;;;;;;;67.30;19.92;;;-3276.60;79.90;;;;;;5055654;28;20450;-64
2023/03/01 03:20:04;;;;;;;51.47;17.20;;;-3276.60;80.00;;;;;;5041179;28;20053;-65
2023/03/01 03:22:33;;;;;;;58.83;19.88;;;-3276.60;79.80;;;;;;5058581;28;20048;-64
2023/03/01 03:25:00;;;;;;;50.92;18.00;;;-3276.60;80.00;;;;;;5053014;28;20098;-64
2023/03/01 03:27:28;;;;;;;45.08;16.35;;;-3276.60;80.10;;;;;;5052813;28;20487;-65
2023/03/01 03:29:56;;;;;;;44.50;14.63;;;-3276.60;80.00;;;;;;5054492;28;20511;-64
2023/03/01 03:32:22;;;;;;;41.50;13.77;;;-3276.70;79.90;;;;;;5055312;28;20059;-63
2023/03/01 03:34:51;;;;;;;37.53;12.80;;;-3276.60;79.90;;;;;;5049325;28;20041;-64
2023/03/01 03:40:00;;;;;;;33.78;13.10;;;-3276.60;80.20;;;;;;5054744;28;20048;-65
2023/03/01 03:42:26;;;;;;;35.33;12.55;;;-3276.60;80.00;;;;;;5057164;28;20045;-65
2023/03/01 03:44:53;;;;;;;39.97;13.60;;;-3276.60;80.00;;;;;;5056714;28;20048;-64
2023/03/01 03:47:20;;;;;;;44.95;13.38;;;-3276.60;80.20;;;;;;5056985;28;20060;-64
2023/03/01 03:49:47;;;;;;;35.92;12.70;;;-3276.60;80.10;;;;;;5056501;28;20044;-64
2023/03/01 03:52:15;;;;;;;24.38;10.93;;;-3276.60;79.80;;;;;;5057884;28;20049;-65
2023/03/01 03:54:44;;;;;;;29.33;11.88;;;-3276.60;80.00;;;;;;5052902;28;20045;-64
2023/03/01 03:57:10;;;;;;;34.35;12.02;;;-3276.60;80.10;;;;;;5050472;28;20087;-61
2023/03/01 03:59:37;;;;;;;28.38;11.43;;;-3276.60;80.00;;;;;;5047860;28;20056;-62
2023/03/01 04:02:05;;;;;;;28.63;11.45;;;-3276.60;80.10;;;;;;5047141;28;20049;-64
2023/03/01 04:04:32;;;;;;;26.70;10.10;;;-3276.60;79.90;;;;;;5049727;28;20057;-65
2023/03/01 04:06:59;;;;;;;23.63;10.65;;;-3276.70;79.70;;;;;;5048397;28;20055;-65
2023/03/01 04:09:30;;;;;;;24.75;10.27;;;0.00;79.20;;;;;;5051055;28;20037;-65
2023/03/01 04:11:56;;;;;;;22.15;10.43;;;0.00;78.80;;;;;;5054324;28;20041;-64
2023/03/01 04:14:23;;;;;;;21.20;10.13;;;0.00;78.30;;;;;;5057175;28;20060;-66
2023/03/01 04:16:50;;;;;;;20.85;9.85;;;0.00;78.10;;;;;;5055804;28;20045;-65
2023/03/01 04:19:17;;;;;;;18.95;9.60;;;0.00;78.00;;;;;;5051981;28;20788;-64
2023/03/01 04:21:44;;;;;;;21.83;9.63;;;0.00;77.90;;;;;;5052394;28;20057;-63
2023/03/01 04:24:12;;;;;;;18.90;9.93;;;0.00;77.80;;;;;;5050632;28;20056;-63
2023/03/01 04:26:40;;;;;;;17.80;9.15;;;0.00;77.70;;;;;;5053693;28;20491;-63
2023/03/01 04:29:07;;;;;;;25.98;10.30;;;0.00;77.70;;;;;;5053667;28;20041;-62
2023/03/01 04:31:34;;;;;;;22.13;9.95;;;0.00;77.80;;;;;;5049605;28;20048;-63
2023/03/01 04:34:01;;;;;;;24.60;10.00;;;0.00;77.80;;;;;;5052085;28;20044;-63
2023/03/01 04:36:29;;;;;;;22.15;10.75;;;0.10;77.70;;;;;;5053377;28;20045;-61
2023/03/01 04:38:56;;;;;;;22.17;10.18;;;0.10;77.40;;;;;;5050747;28;20045;-63
2023/03/01 04:41:25;;;;;;;20.33;9.85;;;0.10;77.40;;;;;;5049934;28;21140;-63
2023/03/01 04:43:53;;;;;;;23.02;9.75;;;0.20;77.20;;;;;;5053518;28;20064;-62
2023/03/01 04:46:21;;;;;;;18.73;10.10;;;0.20;77.30;;;;;;5050924;28;20037;-61
2023/03/01 04:48:49;;;;;;;18.80;9.30;;;0.10;77.40;;;;;;5041818;28;20437;-62
2023/03/01 04:51:16;;;;;;;16.90;9.80;;;0.10;77.40;;;;;;5049200;28;20056;-62
2023/03/01 04:53:44;;;;;;;19.92;9.35;;;0.20;77.30;;;;;;5052328;28;20148;-62
2023/03/01 04:56:13;;;;;;;20.70;10.65;;;0.20;77.40;;;;;;5046926;28;20162;-63
2023/03/01 04:58:40;;;;;;;19.52;9.82;;;0.20;77.30;;;;;;5045373;28;20289;-63
2023/03/01 05:01:14;;;;;;;16.58;9.38;;;0.20;77.20;;;;;;5051918;28;20136;-68
2023/03/01 05:03:43;;;;;;;18.02;9.75;;;0.20;77.00;;;;;;5048064;28;20587;-69
2023/03/01 05:06:10;;;;;;;18.65;10.05;;;0.20;76.90;;;;;;5050263;28;20933;-64
2023/03/01 05:08:38;;;;;;;19.23;9.52;;;0.20;76.90;;;;;;5049298;28;20067;-65
2023/03/01 05:11:05;;;;;;;15.55;9.30;;;0.20;77.00;;;;;;5049452;28;20071;-62
2023/03/01 05:13:33;;;;;;;18.80;9.75;;;0.20;77.00;;;;;;5051827;28;20052;-61
2023/03/01 05:16:02;;;;;;;17.63;8.85;;;0.20;77.10;;;;;;5048813;28;20503;-63
2023/03/01 05:18:34;;;;;;;20.15;9.65;;;0.20;76.90;;;;;;5049698;28;20052;-62
2023/03/01 05:21:05;;;;;;;16.55;8.48;;;0.20;77.00;;;;;;5054990;28;20049;-61
2023/03/01 05:23:32;;;;;;;20.33;9.90;;;0.20;76.90;;;;;;5050448;28;20044;-62
2023/03/01 05:25:59;;;;;;;19.02;8.68;;;0.20;76.90;;;;;;5051559;28;20056;-63
2023/03/01 05:28:27;;;;;;;18.92;9.45;;;0.20;76.90;;;;;;5051257;28;20057;-63
2023/03/01 05:30:54;;;;;;;18.55;9.55;;;0.20;76.80;;;;;;5050965;28;20109;-63
2023/03/01 05:33:23;;;;;;;20.40;10.20;;;0.20;76.90;;;;;;5052707;28;20060;-62
2023/03/01 05:35:53;;;;;;;16.73;9.82;;;0.20;77.00;;;;;;5049754;28;20503;-61
2023/03/01 05:38:20;;;;;;;19.48;9.70;;;0.20;77.00;;;;;;5050616;28;20049;-62
2023/03/01 05:40:49;;;;;;;16.02;9.05;;;0.30;77.00;;;;;;5050526;28;20052;-65
2023/03/01 05:43:17;;;;;;;16.50;9.68;;;0.30;76.90;;;;;;5057181;28;20052;-64
2023/03/01 05:45:45;;;;;;;16.63;9.48;;;0.30;76.80;;;;;;5054413;28;20040;-64
2023/03/01 05:48:13;;;;;;;17.27;9.07;;;0.30;76.50;;;;;;5049712;28;20041;-63
2023/03/01 05:50:41;;;;;;;19.30;9.13;;;0.30;76.60;;;;;;5049852;28;20497;-68
2023/03/01 05:53:12;;;;;;;17.58;9.30;;;0.30;76.70;;;;;;5052939;28;20048;-69
2023/03/01 05:55:39;;;;;;;;;;;0.30;76.40;;;;;;5049318;28;20045;-65
2023/03/01 05:58:08;;;;;;;16.67;9.07;;;0.30;76.40;;;;;;5054382;28;19933;-64
2023/03/01 06:00:35;;;;;;;18.55;10.05;;;0.40;76.40;;;;;;5048942;28;20045;-63
2023/03/01 06:03:02;;;;;;;17.98;9.80;;;0.30;76.20;;;;;;5046117;28;20093;-63
2023/03/01 06:05:29;;;;;;;18.15;9.93;;;0.40;76.30;;;;;;5053125;28;20052;-63
2023/03/01 06:08:00;;;;;;;18.30;9.45;;;0.30;76.30;;;;;;5046612;28;20063;-64
2023/03/01 06:10:31;;;;;;;17.38;9.20;;;0.40;76.20;;;;;;5046890;28;20049;-69
2023/03/01 06:12:59;;;;;;;17.13;8.73;;;0.30;76.40;;;;;;5053421;28;20052;-68
2023/03/01 06:15:26;;;;;;;17.00;10.00;;;0.40;76.30;;;;;;5053389;28;20132;-63
2023/03/01 06:17:56;;;;;;;19.00;8.88;;;0.40;76.20;;;;;;5052509;28;20052;-63
2023/03/01 06:20:26;;;;;;;18.50;9.18;;;0.40;76.10;;;;;;5052169;28;20045;-62
2023/03/01 06:22:53;;;;;;;18.33;10.00;;;0.40;76.20;;;;;;5057536;28;20136;-62
2023/03/01 06:25:23;;;;;;;20.13;8.98;;;0.40;76.20;;;;;;5057386;28;20075;-62
2023/03/01 06:27:52;;;;;;;19.35;9.57;;;0.40;76.10;;;;;;5055035;28;20044;-64
2023/03/01 06:30:21;;;;;;;17.38;9.80;;;0.40;76.10;;;;;;5057153;28;20044;-62
2023/03/01 06:32:48;;;;;;;17.48;9.10;;;0.40;76.20;;;;;;5057202;28;20517;-62
2023/03/01 06:35:18;;;;;;;17.75;9.00;;;0.40;75.90;;;;;;5055756;28;20052;-63
2023/03/01 06:37:45;;;;;;;16.48;9.27;;;0.50;75.80;;;;;;5058186;28;20044;-63
2023/03/01 06:40:13;;;;;;;18.20;9.07;;;0.50;75.70;;;;;;5058125;28;20056;-62
2023/03/01 06:42:43;;;;;;;16.95;9.38;;;0.40;75.90;;;;;;5058875;28;20057;-62
2023/03/01 06:45:12;;;;;;;18.92;9.55;;;0.40;76.00;;;;;;5051164;28;20151;-62
2023/03/01 06:47:38;;;;;;;20.35;10.40;;;0.50;76.10;;;;;;5056998;28;20123;-63
2023/03/01 06:50:06;;;;;;;20.20;10.02;;;0.40;76.00;;;;;;5058233;28;20083;-63
2023/03/01 06:52:37;;;;;;;19.95;9.43;;;0.30;76.00;;;;;;5056776;28;20072;-63
2023/03/01 06:55:05;;;;;;;18.30;9.73;;;0.40;76.00;;;;;;5057277;28;20053;-62
2023/03/01 06:57:32;;;;;;;17.98;9.80;;;0.40;76.00;;;;;;5058584;28;20053;-61
2023/03/01 06:59:59;;;;;;;16.95;9.55;;;0.40;76.00;;;;;;5052423;28;20045;-62
2023/03/01 07:02:27;;;;;;;20.40;10.65;;;0.40;75.90;;;;;;5049875;28;20045;-63
2023/03/01 07:04:54;;;;;;;17.52;9.60;;;0.50;75.80;;;;;;5045558;28;20120;-61
2023/03/01 07:07:22;;;;;;;17.17;8.88;;;0.50;75.80;;;;;;5051725;28;20498;-65
2023/03/01 07:09:50;;;;;;;18.60;9.05;;;0.50;75.80;;;;;;5052963;28;20435;-65
2023/03/01 07:12:19;;;;;;;17.00;9.50;;;0.50;75.80;;;;;;5054462;28;20044;-62
2023/03/01 07:14:49;;;;;;;19.95;10.02;;;0.50;75.80;;;;;;5051409;28;20056;-63
2023/03/01 07:17:15;;;;;;;20.45;9.38;;;0.50;75.50;;;;;;5058083;28;20056;-62
2023/03/01 07:19:44;;;;;;;16.55;8.75;;;0.50;75.50;;;;;;5057896;28;20055;-63
2023/03/01 07:22:11;;;;;;;17.52;9.02;;;0.60;75.40;;;;;;5060626;28;20048;-64
2023/03/01 07:24:38;;;;;;;19.20;9.93;;;0.60;75.30;;;;;;5039530;28;20033;-63
2023/03/01 07:27:05;;;;;;;19.90;9.95;;;0.60;75.30;;;;;;5058110;28;20052;-61
2023/03/01 07:29:32;;;;;;;18.80;8.55;;;0.60;75.10;;;;;;5056193;28;20048;-62
2023/03/01 07:31:59;;;;;;;16.00;9.20;;;0.70;74.90;;;;;;5056055;28;20063;-62
2023/03/01 07:34:26;;;;;;;17.95;9.10;;;0.70;74.70;;;;;;5055023;28;20052;-62
2023/03/01 07:36:55;;;;;;;17.88;10.45;;;0.80;74.70;;;;;;5057378;28;20045;-62
2023/03/01 07:39:22;;;;;;;16.90;9.07;;;0.80;74.60;;;;;;5056963;28;20996;-62
2023/03/01 07:41:52;;;;;;;19.15;9.93;;;0.80;74.40;;;;;;5057572;28;20143;-62
2023/03/01 07:44:22;;;;;;;14.88;9.10;;;0.80;74.30;;;;;;5057141;28;20110;-61
2023/03/01 07:46:49;;;;;;;20.58;10.38;;;0.80;74.20;;;;;;5057522;28;20049;-73
2023/03/01 07:49:16;;;;;;;17.70;8.75;;;0.80;74.20;;;;;;5057947;28;20068;-74
2023/03/01 07:51:44;;;;;;;17.42;9.32;;;0.90;74.10;;;;;;5057195;28;20043;-73
2023/03/01 07:54:12;;;;;;;16.98;8.70;;;0.90;74.00;;;;;;5057909;28;20053;-73
2023/03/01 07:56:40;;;;;;;15.77;9.57;;;0.90;73.90;;;;;;5056967;28;20059;-62
2023/03/01 07:59:07;;;;;;;17.95;9.52;;;0.80;74.10;;;;;;5057723;28;20051;-63
2023/03/01 08:01:34;;;;;;;17.88;9.07;;;0.90;73.90;;;;;;5058426;28;20033;-61
2023/03/01 08:04:01;;;;;;;16.30;10.07;;;0.80;73.80;;;;;;5057365;28;20048;-62
2023/03/01 08:06:29;;;;;;;18.30;9.70;;;0.90;73.80;;;;;;5057316;28;20033;-64
2023/03/01 08:08:58;;;;;;;17.13;9.60;;;0.90;73.80;;;;;;5057806;28;20039;-64
2023/03/01 08:11:27;;;;;;;18.60;9.32;;;1.00;73.80;;;;;;5041976;28;20059;-62
2023/03/01 08:13:55;;;;;;;19.33;9.50;;;1.00;73.80;;;;;;5055418;28;20050;-61
2023/03/01 08:16:22;;;;;;;18.30;9.30;;;1.00;73.80;;;;;;5057398;28;20470;-63
2023/03/01 08:18:49;;;;;;;17.58;10.00;;;1.00;73.70;;;;;;5057826;28;20048;-63
2023/03/01 08:21:18;;;;;;;17.88;9.82;;;1.10;73.60;;;;;;5055042;28;20090;-62
2023/03/01 08:23:45;;;;;;;17.20;9.23;;;1.20;73.70;;;;;;5055573;28;20086;-63
2023/03/01 08:26:14;;;;;;;18.98;9.15;;;1.20;73.60;;;;;;5054216;28;20047;-63
2023/03/01 08:28:45;;;;;;;17.85;9.43;;;1.20;73.50;;;;;;5054570;28;20438;-63
2023/03/01 08:31:19;;;;;;;17.40;9.63;;;1.20;73.50;;;;;;5055785;28;20053;-63
2023/03/01 08:33:50;;;;;;;18.63;9.95;;;1.20;73.50;;;;;;5055651;28;20068;-62
2023/03/01 08:36:17;;;;;;;16.75;10.20;;;1.30;73.40;;;;;;5055126;28;20053;-63
2023/03/01 08:38:45;;;;;;;17.00;9.63;;;1.40;73.20;;;;;;5055513;28;20136;-65
2023/03/01 08:41:14;;;;;;;16.77;10.55;;;1.50;72.80;;;;;;5054197;28;20037;-62
2023/03/01 08:43:41;;;;;;;18.25;10.02;;;1.60;72.80;;;;;;5055534;28;20045;-62
2023/03/01 08:46:09;;;;;;;20.25;9.90;;;1.60;72.80;;;;;;5056761;28;20055;-63
2023/03/01 08:48:36;;;;;;;19.02;10.10;;;1.70;72.30;;;;;;5051615;28;20610;-62
2023/03/01 08:51:12;;;;;;;16.92;9.48;;;1.80;71.90;;;;;;5057344;28;20053;-74
2023/03/01 08:53:39;;;;;;;18.63;9.73;;;1.80;71.70;;;;;;5057660;28;20048;-74
2023/03/01 08:56:06;;;;;;;16.55;9.75;;;1.90;71.40;;;;;;5056737;28;20045;-75
2023/03/01 08:58:33;;;;;;;18.48;10.18;;;2.00;71.20;;;;;;5054739;28;20526;-74
2023/03/01 09:01:07;;;;;;;17.85;9.93;;;2.20;70.80;;;;;;5057341;28;20052;-69
2023/03/01 09:03:35;;;;;;;20.23;10.80;;;2.20;70.50;;;;;;5054246;28;20053;-69
2023/03/01 09:06:03;;;;;;;17.33;10.80;;;2.40;70.20;;;;;;5055868;28;20048;-74
2023/03/01 09:08:30;;;;;;;21.73;11.15;;;2.40;69.70;;;;;;5056688;28;20106;-75
2023/03/01 09:10:57;;;;;;;19.45;10.68;;;2.50;69.40;;;;;;5056755;28;20071;-74
2023/03/01 09:13:24;;;;;;;19.48;10.77;;;2.60;68.60;;;;;;5055536;28;20427;-75
2023/03/01 09:15:51;;;;;;;16.40;9.27;;;2.70;68.30;;;;;;5055565;28;20500;-65
2023/03/01 09:18:18;;;;;;;18.25;9.38;;;2.70;68.10;;;;;;5055945;28;20122;-64
2023/03/01 09:20:46;;;;;;;17.80;10.32;;;2.80;67.70;;;;;;5055016;28;20510;-63
2023/03/01 09:23:13;;;;;;;19.42;11.15;;;3.00;67.40;;;;;;5056204;28;20064;-64
2023/03/01 09:25:40;;;;;;;16.90;10.48;;;3.00;67.50;;;;;;5052286;28;20037;-61
2023/03/01 09:28:07;;;;;;;18.40;9.98;;;3.00;67.10;;;;;;5046242;28;20488;-61
2023/03/01 09:30:34;;;;;;;17.67;9.57;;;3.10;67.20;;;;;;5054293;28;20505;-61
2023/03/01 09:33:01;;;;;;;17.35;10.60;;;3.20;67.10;;;;;;5048840;28;20052;-62
2023/03/01 09:35:29;;;;;;;16.52;10.13;;;3.30;66.90;;;;;;5050559;28;20127;-63
2023/03/01 09:37:57;;;;;;;17.52;10.68;;;3.40;66.10;;;;;;5052028;28;20408;-63
2023/03/01 09:40:28;;;;;;;18.98;10.60;;;3.50;65.80;;;;;;5050814;28;20040;-63
2023/03/01 09:43:02;;;;;;;16.73;9.73;;;3.60;65.80;;;;;;5051209;28;20052;-62
2023/03/01 09:45:34;;;;;;;17.55;10.13;;;3.60;65.50;;;;;;5047750;28;20045;-61
2023/03/01 09:48:02;;;;;;;17.08;10.15;;;3.70;65.10;;;;;;5050664;28;20040;-63
2023/03/01 09:50:34;;;;;;;19.45;11.27;;;3.80;64.80;;;;;;5054559;28;20032;-68
2023/03/01 09:53:06;;;;;;;16.33;10.20;;;3.90;64.60;;;;;;5046456;28;20064;-68
2023/03/01 09:55:39;;;;;;;18.90;10.50;;;4.00;64.40;;;;;;5050585;28;20056;-62
2023/03/01 09:58:27;;;;;;;19.13;9.77;;;4.10;64.40;;;;;;5054643;28;20163;-67
2023/03/01 10:00:57;;;;;;;17.00;10.43;;;4.20;64.20;;;;;;5048299;28;20110;-62
2023/03/01 10:03:28;;;;;;;18.27;9.98;;;4.20;63.70;;;;;;5045860;28;20499;-62
2023/03/01 10:06:02;;;;;;;16.75;10.00;;;4.30;63.20;;;;;;5051753;28;20053;-70
2023/03/01 10:08:43;;;;;;;14.55;9.63;;;4.50;63.10;;;;;;5051246;28;20045;-69
2023/03/01 10:11:22;;;;;;;16.73;9.68;;;4.60;62.60;;;;;;5050670;28;20122;-68
2023/03/01 10:13:55;;;;;;;15.68;9.32;;;4.70;62.10;;;;;;5051727;28;20053;-68
2023/03/01 10:16:28;;;;;;;14.57;8.77;;;4.80;61.70;;;;;;5053969;28;20336;-63
2023/03/01 10:19:00;;;;;;;13.73;8.45;;;4.90;61.50;;;;;;5052496;28;20487;-62
2023/03/01 10:21:37;;;;;;;18.23;9.70;;;4.90;60.90;;;;;;5051996;28;20049;-65
2023/03/01 10:24:13;;;;;;;14.70;9.40;;;5.00;61.10;;;;;;5053160;28;20053;-65
2023/03/01 10:26:52;;;;;;;19.77;9.02;;;5.10;61.20;;;;;;5051998;28;20044;-66
2023/03/01 10:29:24;;;;;;;17.80;9.32;;;5.20;60.30;;;;;;5052717;28;20438;-65
2023/03/01 10:31:53;;;;;;;17.92;9.20;;;5.20;60.20;;;;;;5045733;28;20487;-63
2023/03/01 10:34:22;;;;;;;16.10;8.75;;;5.20;60.40;;;;;;5053347;28;20068;-62
2023/03/01 10:36:51;;;;;;;15.45;8.57;;;5.40;60.50;;;;;;5054435;28;20099;-62
2023/03/01 10:39:22;;;;;;;14.73;8.48;;;5.40;59.70;;;;;;5051298;28;20036;-63
2023/03/01 10:42:00;;;;;;;13.25;8.13;;;5.50;59.80;;;;;;5052777;28;20061;-61
2023/03/01 10:44:41;;;;;;;17.15;8.75;;;5.60;59.30;;;;;;5053411;28;20518;-63
2023/03/01 10:47:23;;;;;;;14.43;8.23;;;5.70;59.50;;;;;;5052852;28;20052;-67
2023/03/01 10:50:05;;;;;;;14.98;8.35;;;5.70;58.80;;;;;;5045491;28;20040;-68
2023/03/01 10:52:35;;;;;;;14.18;8.48;;;5.80;58.30;;;;;;5045995;28;20059;-67
2023/03/01 10:55:19;;;;;;;15.25;8.65;;;5.90;57.80;;;;;;5052588;28;20076;-68
2023/03/01 10:57:45;;;;;;;15.25;8.63;;;6.00;57.90;;;;;;5055026;28;20045;-69
2023/03/01 11:00:30;;;;;;;13.90;8.05;;;6.10;57.20;;;;;;5047963;28;20053;-68
2023/03/01 11:03:13;;;;;;;12.52;7.38;;;6.10;57.40;;;;;;5050572;28;20040;-68
2023/03/01 11:05:53;;;;;;;16.27;8.60;;;6.10;57.00;;;;;;5049057;28;20131;-69
2023/03/01 11:08:38;;;;;;;13.95;8.02;;;6.30;56.20;;;;;;5050101;28;20511;-69
2023/03/01 11:11:20;;;;;;;13.63;7.72;;;6.40;56.00;;;;;;5050846;28;20141;-70
2023/03/01 11:13:54;;;;;;;12.80;7.65;;;6.40;56.10;;;;;;5051866;28;20507;-69
2023/03/01 11:16:36;;;;;;;13.13;7.82;;;6.40;56.40;;;;;;5056075;28;20049;-62
2023/03/01 11:19:20;;;;;;;12.80;7.55;;;6.50;55.90;;;;;;5058267;28;20471;-63
2023/03/01 11:21:57;;;;;;;12.80;7.80;;;6.50;55.30;;;;;;5055108;28;20574;-63
2023/03/01 11:24:32;;;;;;;14.05;7.28;;;6.60;56.00;;;;;;5053810;28;20110;-63
2023/03/01 11:27:04;;;;;;;11.68;7.30;;;6.60;55.40;;;;;;5054776;28;20052;-65
2023/03/01 11:29:36;;;;;;;10.80;6.72;;;6.70;55.60;;;;;;5052480;28;20041;-65
2023/03/01 11:32:08;;;;;;;11.88;7.65;;;6.70;55.50;;;;;;5053008;28;20088;-69
2023/03/01 11:34:41;;;;;;;13.38;7.15;;;6.70;54.60;;;;;;5047528;28;20057;-68
2023/03/01 11:37:24;;;;;;;10.38;6.50;;;6.80;53.50;;;;;;5052873;28;20068;-72
2023/03/01 11:39:59;;;;;;;11.02;6.93;;;6.80;54.40;;;;;;5055582;28;20094;-73
2023/03/01 11:42:38;;;;;;;10.25;6.22;;;6.80;55.10;;;;;;5052179;28;20094;-73
2023/03/01 11:45:10;;;;;;;10.95;6.78;;;6.90;54.50;;;;;;5056745;28;20053;-72
2023/03/01 11:48:03;;;;;;;12.35;6.43;;;6.90;54.20;;;;;;5056237;28;20041;-72
2023/03/01 11:50:36;;;;;;;11.23;6.20;;;6.90;53.60;;;;;;5044892;28;20071;-67
2023/03/01 11:53:26;;;;;;;11.15;6.63;;;6.90;53.40;;;;;;5054358;28;20103;-68
2023/03/01 11:55:59;;;;;;;;;;;7.00;53.40;;;;;;5054114;28;20053;-68
2023/03/01 11:58:47;;;;;;;11.38;6.40;;;6.90;54.40;;;;;;5056606;28;19990;-68
2023/03/01 12:01:31;;;;;;;12.80;6.80;;;7.00;54.10;;;;;;5053046;28;20053;-62
2023/03/01 12:04:29;;;;;;;9.70;5.97;;;6.90;54.10;;;;;;5051391;28;20045;-62
2023/03/01 12:07:00;;;;;;;13.88;6.68;;;6.90;53.40;;;;;;5049229;28;20057;-68
2023/03/01 12:09:52;;;;;;;13.60;6.82;;;6.90;52.90;;;;;;5052534;28;20041;-68
2023/03/01 12:12:29;;;;;;;10.98;6.90;;;6.90;52.60;;;;;;5054026;28;20052;-63
2023/03/01 12:15:21;;;;;;;9.68;6.45;;;6.90;53.10;;;;;;5051325;28;20132;-62
2023/03/01 12:18:08;;;;;;;10.70;6.13;;;6.80;52.90;;;;;;5052186;28;20047;-62
2023/03/01 12:20:41;;;;;;;10.93;6.30;;;6.90;52.90;;;;;;5052060;28;20399;-61
2023/03/01 12:23:34;;;;;;;10.98;6.78;;;6.90;53.10;;;;;;5045068;28;20492;-63
2023/03/01 12:26:12;;;;;;;12.68;6.38;;;6.90;53.50;;;;;;5055375;28;20111;-63
2023/03/01 12:28:57;;;;;;;10.93;6.82;;;6.80;52.60;;;;;;5049240;28;20107;-62
2023/03/01 12:31:52;;;;;;;11.60;6.90;;;6.80;52.80;;;;;;5050210;28;20064;-63
2023/03/01 12:34:34;;;;;;;9.77;6.45;;;6.90;53.70;;;;;;5054768;28;20049;-63
2023/03/01 12:37:17;;;;;;;12.75;6.90;;;6.90;53.20;;;;;;5051514;28;20044;-66
2023/03/01 12:39:58;;;;;;;9.82;6.25;;;6.90;53.30;;;;;;5054705;28;20048;-65
2023/03/01 12:42:33;;;;;;;10.30;6.55;;;6.90;53.20;;;;;;5051413;28;20045;-66
2023/03/01 12:45:17;;;;;;;9.57;6.13;;;7.00;53.30;;;;;;5052554;28;20044;-66
2023/03/01 12:48:00;;;;;;;11.38;6.45;;;6.90;52.90;;;;;;5054771;28;20132;-65
2023/03/01 12:50:36;;;;;;;10.65;6.57;;;7.00;53.70;;;;;;5055878;28;20056;-68
2023/03/01 12:53:03;;;;;;;11.38;6.53;;;7.00;53.20;;;;;;5045623;28;20061;-68
2023/03/01 12:55:34;;;;;;;15.27;7.70;;;7.00;53.30;;;;;;5052132;28;20087;-68
2023/03/01 12:58:05;;;;;;;;;;;7.10;53.00;;;;;;5049071;28;20048;-69
2023/03/01 13:00:38;;;;;;;10.60;6.68;;;7.00;52.70;;;;;;5055176;28;19970;-68
2023/03/01 13:03:20;;;;;;;12.73;7.65;;;7.00;53.50;;;;;;5051606;28;23664;-68